sensor_id;sensor_type;location;lat;lon;timestamp;temperature;humidity
11055;DHT22;5580;50.106;8.702;2023-12-20T00:00:05;6.10;99.90
11055;DHT22;5580;50.106;8.702;2023-12-20T00:02:31;6.10;99.90
11055;DHT22;5580;50.106;8.702;2023-12-20T00:04:56;6.10;99.90
11055;DHT22;5580;50.106;8.702;2023-12-20T00:07:22;6.10;99.90
11055;DHT22;5580;50.106;8.702;2023-12-20T00:09:47;6.10;99.90
11055;DHT22;5580;50.106;8.702;2023-12-20T00:12:13;6.00;99.90
11055;DHT22;5580;50.106;8.702;2023-12-20T00:14:38;6.00;99.90
11055;DHT22;5580;50.106;8.702;2023-12-20T00:17:04;6.00;99.90
11055;DHT22;5580;50.106;8.702;2023-12-20T00:19:30;6.10;99.90
11055;DHT22;5580;50.106;8.702;2023-12-20T00:21:55;6.10;99.90
11055;DHT22;5580;50.106;8.702;2023-12-20T00:24:21;6.10;99.90
11055;DHT22;5580;50.106;8.702;2023-12-20T00:26:46;6.10;99.90
11055;DHT22;5580;50.106;8.702;2023-12-20T00:29:12;6.10;99.90
11055;DHT22;5580;50.106;8.702;2023-12-20T00:31:37;6.00;99.90
11055;DHT22;5580;50.106;8.702;2023-12-20T00:34:03;6.00;99.90
11055;DHT22;5580;50.106;8.702;2023-12-20T00:36:29;6.00;99.90
11055;DHT22;5580;50.106;8.702;2023-12-20T00:38:54;6.10;99.90
11055;DHT22;5580;50.106;8.702;2023-12-20T00:41:20;6.10;99.90
11055;DHT22;5580;50.106;8.702;2023-12-20T00:43:45;6.10;99.90
11055;DHT22;5580;50.106;8.702;2023-12-20T00:46:11;6.10;99.90
11055;DHT22;5580;50.106;8.702;2023-12-20T00:48:36;6.10;99.90
11055;DHT22;5580;50.106;8.702;2023-12-20T00:51:02;6.10;99.90
11055;DHT22;5580;50.106;8.702;2023-12-20T00:53:28;6.10;99.90
11055;DHT22;5580;50.106;8.702;2023-12-20T00:55:53;6.20;99.90
11055;DHT22;5580;50.106;8.702;2023-12-20T00:58:19;6.10;99.90
11055;DHT22;5580;50.106;8.702;2023-12-20T01:00:44;6.10;99.90
11055;DHT22;5580;50.106;8.702;2023-12-20T01:03:10;6.10;99.90
11055;DHT22;5580;50.106;8.702;2023-12-20T01:05:36;6.10;99.90
11055;DHT22;5580;50.106;8.702;2023-12-20T01:08:01;6.10;99.90
11055;DHT22;5580;50.106;8.702;2023-12-20T01:10:28;6.10;99.90
11055;DHT22;5580;50.106;8.702;2023-12-20T01:12:55;6.10;99.90
11055;DHT22;5580;50.106;8.702;2023-12-20T01:15:20;6.10;99.90
11055;DHT22;5580;50.106;8.702;2023-12-20T01:17:46;6.10;99.90
11055;DHT22;5580;50.106;8.702;2023-12-20T01:20:12;6.10;99.90
11055;DHT22;5580;50.106;8.702;2023-12-20T01:22:38;6.10;99.90
11055;DHT22;5580;50.106;8.702;2023-12-20T01:25:03;6.10;99.90
11055;DHT22;5580;50.106;8.702;2023-12-20T01:27:29;6.10;99.90
11055;DHT22;5580;50.106;8.702;2023-12-20T01:29:56;6.10;99.90
11055;DHT22;5580;50.106;8.702;2023-12-20T01:32:22;6.10;99.90
11055;DHT22;5580;50.106;8.702;2023-12-20T01:34:47;6.10;99.90
11055;DHT22;5580;50.106;8.702;2023-12-20T01:37:14;6.10;99.90
11055;DHT22;5580;50.106;8.702;2023-12-20T01:39:39;6.10;99.90
11055;DHT22;5580;50.106;8.702;2023-12-20T01:42:05;6.10;99.90
11055;DHT22;5580;50.106;8.702;2023-12-20T01:44:30;6.10;99.90
11055;DHT22;5580;50.106;8.702;2023-12-20T01:46:56;6.00;99.90
11055;DHT22;5580;50.106;8.702;2023-12-20T01:49:22;6.10;99.90
11055;DHT22;5580;50.106;8.702;2023-12-20T01:51:49;6.10;99.90
11055;DHT22;5580;50.106;8.702;2023-12-20T01:54:15;6.10;99.90
11055;DHT22;5580;50.106;8.702;2023-12-20T01:56:41;6.00;99.90
11055;DHT22;5580;50.106;8.702;2023-12-20T01:59:08;6.10;99.90
11055;DHT22;5580;50.106;8.702;2023-12-20T02:01:35;6.10;99.90
11055;DHT22;5580;50.106;8.702;2023-12-20T02:04:01;6.10;99.90
11055;DHT22;5580;50.106;8.702;2023-12-20T02:06:30;6.10;99.90
11055;DHT22;5580;50.106;8.702;2023-12-20T02:08:57;6.10;99.90
11055;DHT22;5580;50.106;8.702;2023-12-20T02:11:24;6.10;99.90
11055;DHT22;5580;50.106;8.702;2023-12-20T02:13:50;6.10;99.90
11055;DHT22;5580;50.106;8.702;2023-12-20T02:16:16;6.10;99.90
11055;DHT22;5580;50.106;8.702;2023-12-20T02:18:43;6.10;99.90
11055;DHT22;5580;50.106;8.702;2023-12-20T02:21:10;6.10;99.90
11055;DHT22;5580;50.106;8.702;2023-12-20T02:23:35;6.10;99.90
11055;DHT22;5580;50.106;8.702;2023-12-20T02:26:02;6.10;99.90
11055;DHT22;5580;50.106;8.702;2023-12-20T02:28:28;6.10;99.90
11055;DHT22;5580;50.106;8.702;2023-12-20T02:30:54;6.10;99.90
11055;DHT22;5580;50.106;8.702;2023-12-20T02:33:20;6.10;99.90
11055;DHT22;5580;50.106;8.702;2023-12-20T02:35:45;6.10;99.90
11055;DHT22;5580;50.106;8.702;2023-12-20T02:38:11;6.10;99.90
11055;DHT22;5580;50.106;8.702;2023-12-20T02:40:37;6.10;99.90
11055;DHT22;5580;50.106;8.702;2023-12-20T02:43:02;6.20;99.90
11055;DHT22;5580;50.106;8.702;2023-12-20T02:45:28;6.10;99.90
11055;DHT22;5580;50.106;8.702;2023-12-20T02:47:53;6.10;99.90
11055;DHT22;5580;50.106;8.702;2023-12-20T02:50:19;6.10;99.90
11055;DHT22;5580;50.106;8.702;2023-12-20T02:52:45;6.10;99.90
11055;DHT22;5580;50.106;8.702;2023-12-20T02:55:11;6.20;99.90
11055;DHT22;5580;50.106;8.702;2023-12-20T02:57:36;6.10;99.90
11055;DHT22;5580;50.106;8.702;2023-12-20T03:00:10;6.20;99.90
11055;DHT22;5580;50.106;8.702;2023-12-20T03:02:36;6.20;99.90
11055;DHT22;5580;50.106;8.702;2023-12-20T03:05:02;6.20;99.90
11055;DHT22;5580;50.106;8.702;2023-12-20T03:07:28;6.20;99.90
11055;DHT22;5580;50.106;8.702;2023-12-20T03:09:54;6.20;99.90
11055;DHT22;5580;50.106;8.702;2023-12-20T03:12:19;6.20;99.90
11055;DHT22;5580;50.106;8.702;2023-12-20T03:14:45;6.20;99.90
11055;DHT22;5580;50.106;8.702;2023-12-20T03:17:10;6.20;99.90
11055;DHT22;5580;50.106;8.702;2023-12-20T03:19:36;6.20;99.90
11055;DHT22;5580;50.106;8.702;2023-12-20T03:22:01;6.20;99.90
11055;DHT22;5580;50.106;8.702;2023-12-20T03:24:27;6.20;99.90
11055;DHT22;5580;50.106;8.702;2023-12-20T03:26:53;6.20;99.90
11055;DHT22;5580;50.106;8.702;2023-12-20T03:29:18;6.20;99.90
11055;DHT22;5580;50.106;8.702;2023-12-20T03:31:44;6.30;99.90
11055;DHT22;5580;50.106;8.702;2023-12-20T03:34:11;6.30;99.90
11055;DHT22;5580;50.106;8.702;2023-12-20T03:36:36;6.30;99.90
11055;DHT22;5580;50.106;8.702;2023-12-20T03:39:02;6.30;99.90
11055;DHT22;5580;50.106;8.702;2023-12-20T03:41:28;6.30;99.90
11055;DHT22;5580;50.106;8.702;2023-12-20T03:43:53;6.30;99.90
11055;DHT22;5580;50.106;8.702;2023-12-20T03:46:19;6.30;99.90
11055;DHT22;5580;50.106;8.702;2023-12-20T03:48:44;6.20;99.90
11055;DHT22;5580;50.106;8.702;2023-12-20T03:51:10;6.20;99.90
11055;DHT22;5580;50.106;8.702;2023-12-20T03:53:35;6.20;99.90
11055;DHT22;5580;50.106;8.702;2023-12-20T03:56:01;6.10;99.90
11055;DHT22;5580;50.106;8.702;2023-12-20T03:58:27;6.10;99.90
11055;DHT22;5580;50.106;8.702;2023-12-20T04:00:52;6.20;99.90
11055;DHT22;5580;50.106;8.702;2023-12-20T04:03:18;6.20;99.90
11055;DHT22;5580;50.106;8.702;2023-12-20T04:05:43;6.20;99.90
11055;DHT22;5580;50.106;8.702;2023-12-20T04:08:09;6.20;99.90
11055;DHT22;5580;50.106;8.702;2023-12-20T04:10:35;6.20;99.90
11055;DHT22;5580;50.106;8.702;2023-12-20T04:13:00;6.20;99.90
11055;DHT22;5580;50.106;8.702;2023-12-20T04:15:26;6.20;99.90
11055;DHT22;5580;50.106;8.702;2023-12-20T04:17:51;6.20;99.90
11055;DHT22;5580;50.106;8.702;2023-12-20T04:20:17;6.20;99.90
11055;DHT22;5580;50.106;8.702;2023-12-20T04:22:43;6.30;99.90
11055;DHT22;5580;50.106;8.702;2023-12-20T04:25:09;6.30;99.90
11055;DHT22;5580;50.106;8.702;2023-12-20T04:27:35;6.30;99.90
11055;DHT22;5580;50.106;8.702;2023-12-20T04:30:00;6.30;99.90
11055;DHT22;5580;50.106;8.702;2023-12-20T04:32:26;6.30;99.90
11055;DHT22;5580;50.106;8.702;2023-12-20T04:34:51;6.30;99.90
11055;DHT22;5580;50.106;8.702;2023-12-20T04:37:17;6.30;99.90
11055;DHT22;5580;50.106;8.702;2023-12-20T04:39:42;6.30;99.90
11055;DHT22;5580;50.106;8.702;2023-12-20T04:42:08;6.30;99.90
11055;DHT22;5580;50.106;8.702;2023-12-20T04:44:34;6.30;99.90
11055;DHT22;5580;50.106;8.702;2023-12-20T04:46:59;6.30;99.90
11055;DHT22;5580;50.106;8.702;2023-12-20T04:49:25;6.40;99.90
11055;DHT22;5580;50.106;8.702;2023-12-20T04:51:51;6.40;99.90
11055;DHT22;5580;50.106;8.702;2023-12-20T04:54:16;6.40;99.90
11055;DHT22;5580;50.106;8.702;2023-12-20T04:56:42;6.30;99.90
11055;DHT22;5580;50.106;8.702;2023-12-20T04:59:07;6.30;99.90
11055;DHT22;5580;50.106;8.702;2023-12-20T05:01:35;6.30;99.90
11055;DHT22;5580;50.106;8.702;2023-12-20T05:04:00;6.30;99.90
11055;DHT22;5580;50.106;8.702;2023-12-20T05:06:26;6.30;99.90
11055;DHT22;5580;50.106;8.702;2023-12-20T05:08:51;6.30;99.90
11055;DHT22;5580;50.106;8.702;2023-12-20T05:11:17;6.30;99.90
11055;DHT22;5580;50.106;8.702;2023-12-20T05:13:42;6.30;99.90
11055;DHT22;5580;50.106;8.702;2023-12-20T05:16:08;6.30;99.90
11055;DHT22;5580;50.106;8.702;2023-12-20T05:18:34;6.30;99.90
11055;DHT22;5580;50.106;8.702;2023-12-20T05:21:00;6.40;99.90
11055;DHT22;5580;50.106;8.702;2023-12-20T05:23:26;6.40;99.90
11055;DHT22;5580;50.106;8.702;2023-12-20T05:25:51;6.40;99.90
11055;DHT22;5580;50.106;8.702;2023-12-20T05:28:17;6.40;99.90
11055;DHT22;5580;50.106;8.702;2023-12-20T05:30:42;6.50;99.90
11055;DHT22;5580;50.106;8.702;2023-12-20T05:33:08;6.50;99.90
11055;DHT22;5580;50.106;8.702;2023-12-20T05:35:34;6.50;99.90
11055;DHT22;5580;50.106;8.702;2023-12-20T05:38:00;6.50;99.90
11055;DHT22;5580;50.106;8.702;2023-12-20T05:40:25;6.50;99.90
11055;DHT22;5580;50.106;8.702;2023-12-20T05:42:51;6.50;99.90
11055;DHT22;5580;50.106;8.702;2023-12-20T05:45:16;6.60;99.90
11055;DHT22;5580;50.106;8.702;2023-12-20T05:47:42;6.50;99.90
11055;DHT22;5580;50.106;8.702;2023-12-20T05:50:08;6.60;99.90
11055;DHT22;5580;50.106;8.702;2023-12-20T05:52:34;6.60;99.90
11055;DHT22;5580;50.106;8.702;2023-12-20T05:55:00;6.60;99.90
11055;DHT22;5580;50.106;8.702;2023-12-20T05:57:27;6.60;99.90
11055;DHT22;5580;50.106;8.702;2023-12-20T05:59:52;6.60;99.90
11055;DHT22;5580;50.106;8.702;2023-12-20T06:02:18;6.60;99.90
11055;DHT22;5580;50.106;8.702;2023-12-20T06:04:44;6.70;99.90
11055;DHT22;5580;50.106;8.702;2023-12-20T06:07:13;6.70;99.90
11055;DHT22;5580;50.106;8.702;2023-12-20T06:09:38;6.70;99.90
11055;DHT22;5580;50.106;8.702;2023-12-20T06:12:04;6.70;99.90
11055;DHT22;5580;50.106;8.702;2023-12-20T06:14:30;6.70;99.90
11055;DHT22;5580;50.106;8.702;2023-12-20T06:16:56;6.60;99.90
11055;DHT22;5580;50.106;8.702;2023-12-20T06:19:22;6.60;99.90
11055;DHT22;5580;50.106;8.702;2023-12-20T06:21:48;6.60;99.90
11055;DHT22;5580;50.106;8.702;2023-12-20T06:24:13;6.70;99.90
11055;DHT22;5580;50.106;8.702;2023-12-20T06:26:39;6.70;99.90
11055;DHT22;5580;50.106;8.702;2023-12-20T06:29:04;6.70;99.90
11055;DHT22;5580;50.106;8.702;2023-12-20T06:31:30;6.70;99.90
11055;DHT22;5580;50.106;8.702;2023-12-20T06:33:57;6.70;99.90
11055;DHT22;5580;50.106;8.702;2023-12-20T06:36:25;6.70;99.90
11055;DHT22;5580;50.106;8.702;2023-12-20T06:38:51;6.60;99.90
11055;DHT22;5580;50.106;8.702;2023-12-20T06:41:16;6.60;99.90
11055;DHT22;5580;50.106;8.702;2023-12-20T06:43:42;6.60;99.90
11055;DHT22;5580;50.106;8.702;2023-12-20T06:46:08;6.60;99.90
11055;DHT22;5580;50.106;8.702;2023-12-20T06:48:34;6.60;99.90
11055;DHT22;5580;50.106;8.702;2023-12-20T06:51:01;6.60;99.90
11055;DHT22;5580;50.106;8.702;2023-12-20T06:53:28;6.60;99.90
11055;DHT22;5580;50.106;8.702;2023-12-20T06:55:54;6.60;99.90
11055;DHT22;5580;50.106;8.702;2023-12-20T06:58:21;6.50;99.90
11055;DHT22;5580;50.106;8.702;2023-12-20T07:00:47;6.50;99.90
11055;DHT22;5580;50.106;8.702;2023-12-20T07:03:12;6.60;99.90
11055;DHT22;5580;50.106;8.702;2023-12-20T07:05:38;6.50;99.90
11055;DHT22;5580;50.106;8.702;2023-12-20T07:08:04;6.50;99.90
11055;DHT22;5580;50.106;8.702;2023-12-20T07:10:30;6.50;99.90
11055;DHT22;5580;50.106;8.702;2023-12-20T07:12:55;6.50;99.90
11055;DHT22;5580;50.106;8.702;2023-12-20T07:15:22;6.40;99.90
11055;DHT22;5580;50.106;8.702;2023-12-20T07:17:47;6.40;99.90
11055;DHT22;5580;50.106;8.702;2023-12-20T07:20:13;6.30;99.90
11055;DHT22;5580;50.106;8.702;2023-12-20T07:22:38;6.30;99.90
11055;DHT22;5580;50.106;8.702;2023-12-20T07:25:04;6.40;99.90
11055;DHT22;5580;50.106;8.702;2023-12-20T07:27:30;6.40;99.90
11055;DHT22;5580;50.106;8.702;2023-12-20T07:29:56;6.40;99.90
11055;DHT22;5580;50.106;8.702;2023-12-20T07:32:21;6.40;99.90
11055;DHT22;5580;50.106;8.702;2023-12-20T07:34:47;6.40;99.90
11055;DHT22;5580;50.106;8.702;2023-12-20T07:37:12;6.50;99.90
11055;DHT22;5580;50.106;8.702;2023-12-20T07:39:42;6.50;99.90
11055;DHT22;5580;50.106;8.702;2023-12-20T07:42:08;6.50;99.90
11055;DHT22;5580;50.106;8.702;2023-12-20T07:44:34;6.40;99.90
11055;DHT22;5580;50.106;8.702;2023-12-20T07:47:01;6.40;99.90
11055;DHT22;5580;50.106;8.702;2023-12-20T07:49:27;6.40;99.90
11055;DHT22;5580;50.106;8.702;2023-12-20T07:51:52;6.40;99.90
11055;DHT22;5580;50.106;8.702;2023-12-20T07:54:18;6.40;99.90
11055;DHT22;5580;50.106;8.702;2023-12-20T07:56:43;6.30;99.90
11055;DHT22;5580;50.106;8.702;2023-12-20T07:59:09;6.30;99.90
11055;DHT22;5580;50.106;8.702;2023-12-20T08:01:34;6.30;99.90
11055;DHT22;5580;50.106;8.702;2023-12-20T08:04:00;6.20;99.90
11055;DHT22;5580;50.106;8.702;2023-12-20T08:06:25;6.20;99.90
11055;DHT22;5580;50.106;8.702;2023-12-20T08:08:51;6.20;99.90
11055;DHT22;5580;50.106;8.702;2023-12-20T08:11:17;6.20;99.90
11055;DHT22;5580;50.106;8.702;2023-12-20T08:13:43;6.20;99.90
11055;DHT22;5580;50.106;8.702;2023-12-20T08:16:08;6.20;99.90
11055;DHT22;5580;50.106;8.702;2023-12-20T08:18:34;6.20;99.90
11055;DHT22;5580;50.106;8.702;2023-12-20T08:21:00;6.20;99.90
11055;DHT22;5580;50.106;8.702;2023-12-20T08:23:27;6.30;99.90
11055;DHT22;5580;50.106;8.702;2023-12-20T08:25:52;6.30;99.90
11055;DHT22;5580;50.106;8.702;2023-12-20T08:28:18;6.20;99.90
11055;DHT22;5580;50.106;8.702;2023-12-20T08:30:43;6.20;99.90
11055;DHT22;5580;50.106;8.702;2023-12-20T08:33:09;6.20;99.90
11055;DHT22;5580;50.106;8.702;2023-12-20T08:35:41;6.20;99.90
11055;DHT22;5580;50.106;8.702;2023-12-20T08:38:07;6.20;99.90
11055;DHT22;5580;50.106;8.702;2023-12-20T08:40:32;6.20;99.90
11055;DHT22;5580;50.106;8.702;2023-12-20T08:42:58;6.20;99.90
11055;DHT22;5580;50.106;8.702;2023-12-20T08:45:24;6.10;99.90
11055;DHT22;5580;50.106;8.702;2023-12-20T08:47:50;6.20;99.90
11055;DHT22;5580;50.106;8.702;2023-12-20T08:50:15;6.20;99.90
11055;DHT22;5580;50.106;8.702;2023-12-20T08:52:41;6.20;99.90
11055;DHT22;5580;50.106;8.702;2023-12-20T08:55:07;6.20;99.90
11055;DHT22;5580;50.106;8.702;2023-12-20T08:57:33;6.20;99.90
11055;DHT22;5580;50.106;8.702;2023-12-20T08:59:59;6.20;99.90
11055;DHT22;5580;50.106;8.702;2023-12-20T09:02:24;6.30;99.90
11055;DHT22;5580;50.106;8.702;2023-12-20T09:04:50;6.20;99.90
11055;DHT22;5580;50.106;8.702;2023-12-20T09:07:26;6.20;99.90
11055;DHT22;5580;50.106;8.702;2023-12-20T09:09:52;6.20;99.90
11055;DHT22;5580;50.106;8.702;2023-12-20T09:12:21;6.20;99.90
11055;DHT22;5580;50.106;8.702;2023-12-20T09:14:47;6.20;99.90
11055;DHT22;5580;50.106;8.702;2023-12-20T09:17:13;6.20;99.90
11055;DHT22;5580;50.106;8.702;2023-12-20T09:19:39;6.30;99.90
11055;DHT22;5580;50.106;8.702;2023-12-20T09:22:05;6.30;99.90
11055;DHT22;5580;50.106;8.702;2023-12-20T09:24:31;6.30;99.90
11055;DHT22;5580;50.106;8.702;2023-12-20T09:26:56;6.40;99.90
11055;DHT22;5580;50.106;8.702;2023-12-20T09:29:23;6.40;99.90
11055;DHT22;5580;50.106;8.702;2023-12-20T09:31:48;6.40;99.90
11055;DHT22;5580;50.106;8.702;2023-12-20T09:34:15;6.40;99.90
11055;DHT22;5580;50.106;8.702;2023-12-20T09:36:42;6.40;99.90
11055;DHT22;5580;50.106;8.702;2023-12-20T09:39:15;6.50;99.90
11055;DHT22;5580;50.106;8.702;2023-12-20T09:41:45;6.50;99.90
11055;DHT22;5580;50.106;8.702;2023-12-20T09:44:16;6.50;99.90
11055;DHT22;5580;50.106;8.702;2023-12-20T09:46:47;6.50;99.90
11055;DHT22;5580;50.106;8.702;2023-12-20T09:49:16;6.50;99.90
11055;DHT22;5580;50.106;8.702;2023-12-20T09:51:43;6.50;99.90
11055;DHT22;5580;50.106;8.702;2023-12-20T09:54:09;6.50;99.90
11055;DHT22;5580;50.106;8.702;2023-12-20T09:56:35;6.50;99.90
11055;DHT22;5580;50.106;8.702;2023-12-20T09:59:02;6.60;99.90
11055;DHT22;5580;50.106;8.702;2023-12-20T10:01:28;6.60;99.90
11055;DHT22;5580;50.106;8.702;2023-12-20T10:03:54;6.60;99.90
11055;DHT22;5580;50.106;8.702;2023-12-20T10:06:21;6.70;99.90
11055;DHT22;5580;50.106;8.702;2023-12-20T10:08:47;6.70;99.90
11055;DHT22;5580;50.106;8.702;2023-12-20T10:11:13;6.70;99.90
11055;DHT22;5580;50.106;8.702;2023-12-20T10:13:40;6.80;99.90
11055;DHT22;5580;50.106;8.702;2023-12-20T10:16:06;6.80;99.90
11055;DHT22;5580;50.106;8.702;2023-12-20T10:18:35;6.80;99.90
11055;DHT22;5580;50.106;8.702;2023-12-20T10:21:01;6.80;99.90
11055;DHT22;5580;50.106;8.702;2023-12-20T10:23:28;6.90;99.90
11055;DHT22;5580;50.106;8.702;2023-12-20T10:25:58;6.90;99.90
11055;DHT22;5580;50.106;8.702;2023-12-20T10:28:24;6.90;99.90
11055;DHT22;5580;50.106;8.702;2023-12-20T10:30:53;6.90;99.90
11055;DHT22;5580;50.106;8.702;2023-12-20T10:33:26;6.90;99.90
11055;DHT22;5580;50.106;8.702;2023-12-20T10:35:52;6.90;99.90
11055;DHT22;5580;50.106;8.702;2023-12-20T10:38:18;7.00;99.90
11055;DHT22;5580;50.106;8.702;2023-12-20T10:40:45;7.00;99.90
11055;DHT22;5580;50.106;8.702;2023-12-20T10:43:11;7.00;99.90
11055;DHT22;5580;50.106;8.702;2023-12-20T10:45:37;7.00;99.90
11055;DHT22;5580;50.106;8.702;2023-12-20T10:48:04;7.00;99.90
11055;DHT22;5580;50.106;8.702;2023-12-20T10:50:30;7.00;99.90
11055;DHT22;5580;50.106;8.702;2023-12-20T10:52:57;7.10;99.90
11055;DHT22;5580;50.106;8.702;2023-12-20T10:55:23;7.10;99.90
11055;DHT22;5580;50.106;8.702;2023-12-20T10:57:52;7.20;99.90
11055;DHT22;5580;50.106;8.702;2023-12-20T11:00:21;7.20;99.90
11055;DHT22;5580;50.106;8.702;2023-12-20T11:02:49;7.30;99.90
11055;DHT22;5580;50.106;8.702;2023-12-20T11:05:25;7.30;99.90
11055;DHT22;5580;50.106;8.702;2023-12-20T11:08:03;7.40;99.90
11055;DHT22;5580;50.106;8.702;2023-12-20T11:13:23;7.40;99.90
11055;DHT22;5580;50.106;8.702;2023-12-20T11:15:50;7.50;99.90
11055;DHT22;5580;50.106;8.702;2023-12-20T11:18:15;7.50;99.90
11055;DHT22;5580;50.106;8.702;2023-12-20T11:20:42;7.50;99.90
11055;DHT22;5580;50.106;8.702;2023-12-20T11:23:10;7.60;99.90
11055;DHT22;5580;50.106;8.702;2023-12-20T11:25:51;7.60;99.90
11055;DHT22;5580;50.106;8.702;2023-12-20T11:28:21;7.70;99.90
11055;DHT22;5580;50.106;8.702;2023-12-20T11:30:50;7.70;99.90
11055;DHT22;5580;50.106;8.702;2023-12-20T11:33:16;7.70;99.90
11055;DHT22;5580;50.106;8.702;2023-12-20T11:35:42;7.70;99.90
11055;DHT22;5580;50.106;8.702;2023-12-20T11:38:12;7.80;99.90
11055;DHT22;5580;50.106;8.702;2023-12-20T11:40:38;7.90;99.90
11055;DHT22;5580;50.106;8.702;2023-12-20T11:43:06;7.80;99.90
11055;DHT22;5580;50.106;8.702;2023-12-20T11:45:32;7.90;99.90
11055;DHT22;5580;50.106;8.702;2023-12-20T11:47:58;7.90;99.90
11055;DHT22;5580;50.106;8.702;2023-12-20T11:50:24;7.90;99.90
11055;DHT22;5580;50.106;8.702;2023-12-20T11:52:50;7.90;99.90
11055;DHT22;5580;50.106;8.702;2023-12-20T11:55:17;7.90;99.90
11055;DHT22;5580;50.106;8.702;2023-12-20T11:57:43;7.90;99.90
11055;DHT22;5580;50.106;8.702;2023-12-20T12:00:10;7.90;99.90
11055;DHT22;5580;50.106;8.702;2023-12-20T12:02:36;7.90;99.90
11055;DHT22;5580;50.106;8.702;2023-12-20T12:05:01;7.90;99.90
11055;DHT22;5580;50.106;8.702;2023-12-20T12:07:28;7.90;99.90
11055;DHT22;5580;50.106;8.702;2023-12-20T12:09:53;7.90;99.90
11055;DHT22;5580;50.106;8.702;2023-12-20T12:12:19;7.90;99.90
11055;DHT22;5580;50.106;8.702;2023-12-20T12:14:45;7.90;99.90
11055;DHT22;5580;50.106;8.702;2023-12-20T12:17:15;7.90;99.90
11055;DHT22;5580;50.106;8.702;2023-12-20T12:19:41;8.00;99.90
11055;DHT22;5580;50.106;8.702;2023-12-20T12:22:08;8.00;99.90
11055;DHT22;5580;50.106;8.702;2023-12-20T12:24:38;8.10;99.90
11055;DHT22;5580;50.106;8.702;2023-12-20T12:27:06;8.10;99.90
11055;DHT22;5580;50.106;8.702;2023-12-20T12:29:33;8.10;99.90
11055;DHT22;5580;50.106;8.702;2023-12-20T12:31:59;8.20;99.90
11055;DHT22;5580;50.106;8.702;2023-12-20T12:34:27;8.20;99.90
11055;DHT22;5580;50.106;8.702;2023-12-20T12:36:53;8.20;99.90
11055;DHT22;5580;50.106;8.702;2023-12-20T12:39:19;8.20;99.90
11055;DHT22;5580;50.106;8.702;2023-12-20T12:41:45;8.30;99.90
11055;DHT22;5580;50.106;8.702;2023-12-20T12:44:11;8.20;99.90
11055;DHT22;5580;50.106;8.702;2023-12-20T12:46:36;8.20;99.90
11055;DHT22;5580;50.106;8.702;2023-12-20T12:49:02;8.20;99.90
11055;DHT22;5580;50.106;8.702;2023-12-20T12:51:27;8.20;99.90
11055;DHT22;5580;50.106;8.702;2023-12-20T12:53:53;8.30;99.90
11055;DHT22;5580;50.106;8.702;2023-12-20T12:56:19;8.30;99.90
11055;DHT22;5580;50.106;8.702;2023-12-20T12:58:44;8.30;99.90
11055;DHT22;5580;50.106;8.702;2023-12-20T13:01:10;8.20;99.90
11055;DHT22;5580;50.106;8.702;2023-12-20T13:03:36;8.20;99.90
11055;DHT22;5580;50.106;8.702;2023-12-20T13:06:02;8.20;99.90
11055;DHT22;5580;50.106;8.702;2023-12-20T13:08:29;8.20;99.90
11055;DHT22;5580;50.106;8.702;2023-12-20T13:10:55;8.20;99.90
11055;DHT22;5580;50.106;8.702;2023-12-20T13:13:21;8.20;99.90
11055;DHT22;5580;50.106;8.702;2023-12-20T13:15:46;8.20;99.90
11055;DHT22;5580;50.106;8.702;2023-12-20T13:18:16;8.20;99.90
11055;DHT22;5580;50.106;8.702;2023-12-20T13:20:44;8.30;99.90
11055;DHT22;5580;50.106;8.702;2023-12-20T13:23:09;8.20;99.90
11055;DHT22;5580;50.106;8.702;2023-12-20T13:25:35;8.20;99.90
11055;DHT22;5580;50.106;8.702;2023-12-20T13:28:01;8.30;99.90
11055;DHT22;5580;50.106;8.702;2023-12-20T13:30:28;8.30;99.90
11055;DHT22;5580;50.106;8.702;2023-12-20T13:32:53;8.30;99.90
11055;DHT22;5580;50.106;8.702;2023-12-20T13:35:19;8.30;99.90
11055;DHT22;5580;50.106;8.702;2023-12-20T13:37:46;8.30;99.90
11055;DHT22;5580;50.106;8.702;2023-12-20T13:40:11;8.30;99.90
11055;DHT22;5580;50.106;8.702;2023-12-20T13:42:38;8.30;99.90
11055;DHT22;5580;50.106;8.702;2023-12-20T13:45:04;8.30;99.90
11055;DHT22;5580;50.106;8.702;2023-12-20T13:47:30;8.30;99.90
11055;DHT22;5580;50.106;8.702;2023-12-20T13:49:56;8.30;99.90
11055;DHT22;5580;50.106;8.702;2023-12-20T13:52:21;8.30;99.90
11055;DHT22;5580;50.106;8.702;2023-12-20T13:54:47;8.30;99.90
11055;DHT22;5580;50.106;8.702;2023-12-20T13:57:13;8.30;99.90
11055;DHT22;5580;50.106;8.702;2023-12-20T13:59:38;8.30;99.90
11055;DHT22;5580;50.106;8.702;2023-12-20T14:02:04;8.30;99.90
11055;DHT22;5580;50.106;8.702;2023-12-20T14:04:30;8.30;99.90
11055;DHT22;5580;50.106;8.702;2023-12-20T14:06:56;8.30;99.90
11055;DHT22;5580;50.106;8.702;2023-12-20T14:09:22;8.30;99.90
11055;DHT22;5580;50.106;8.702;2023-12-20T14:11:48;8.30;99.90
11055;DHT22;5580;50.106;8.702;2023-12-20T14:14:14;8.30;99.90
11055;DHT22;5580;50.106;8.702;2023-12-20T14:16:39;8.30;99.90
11055;DHT22;5580;50.106;8.702;2023-12-20T14:19:05;8.30;99.90
11055;DHT22;5580;50.106;8.702;2023-12-20T14:21:33;8.30;99.90
11055;DHT22;5580;50.106;8.702;2023-12-20T14:23:58;8.30;99.90
11055;DHT22;5580;50.106;8.702;2023-12-20T14:26:24;8.30;99.90
11055;DHT22;5580;50.106;8.702;2023-12-20T14:28:50;8.20;99.90
11055;DHT22;5580;50.106;8.702;2023-12-20T14:31:15;8.20;99.90
11055;DHT22;5580;50.106;8.702;2023-12-20T14:33:41;8.20;99.90
11055;DHT22;5580;50.106;8.702;2023-12-20T14:36:07;8.20;99.90
11055;DHT22;5580;50.106;8.702;2023-12-20T14:38:34;8.20;99.90
11055;DHT22;5580;50.106;8.702;2023-12-20T14:40:59;8.20;99.90
11055;DHT22;5580;50.106;8.702;2023-12-20T14:43:26;8.20;99.90
11055;DHT22;5580;50.106;8.702;2023-12-20T14:45:55;8.20;99.90
11055;DHT22;5580;50.106;8.702;2023-12-20T14:48:20;8.20;99.90
11055;DHT22;5580;50.106;8.702;2023-12-20T14:50:46;8.20;99.90
11055;DHT22;5580;50.106;8.702;2023-12-20T14:53:14;8.20;99.90
11055;DHT22;5580;50.106;8.702;2023-12-20T14:55:42;8.20;99.90
11055;DHT22;5580;50.106;8.702;2023-12-20T14:58:07;8.10;99.90
11055;DHT22;5580;50.106;8.702;2023-12-20T15:00:33;8.20;99.90
11055;DHT22;5580;50.106;8.702;2023-12-20T15:02:59;8.20;99.90
11055;DHT22;5580;50.106;8.702;2023-12-20T15:05:24;8.10;99.90
11055;DHT22;5580;50.106;8.702;2023-12-20T15:07:50;8.10;99.90
11055;DHT22;5580;50.106;8.702;2023-12-20T15:10:16;8.10;99.90
11055;DHT22;5580;50.106;8.702;2023-12-20T15:12:44;8.10;99.90
11055;DHT22;5580;50.106;8.702;2023-12-20T15:15:12;8.10;99.90
11055;DHT22;5580;50.106;8.702;2023-12-20T15:17:39;8.10;99.90
11055;DHT22;5580;50.106;8.702;2023-12-20T15:20:05;8.10;99.90
11055;DHT22;5580;50.106;8.702;2023-12-20T15:22:31;8.10;99.90
11055;DHT22;5580;50.106;8.702;2023-12-20T15:24:59;8.10;99.90
11055;DHT22;5580;50.106;8.702;2023-12-20T15:27:24;8.10;99.90
11055;DHT22;5580;50.106;8.702;2023-12-20T15:29:50;8.10;99.90
11055;DHT22;5580;50.106;8.702;2023-12-20T15:32:17;8.10;99.90
11055;DHT22;5580;50.106;8.702;2023-12-20T15:34:44;8.10;99.90
11055;DHT22;5580;50.106;8.702;2023-12-20T15:37:10;8.10;99.90
11055;DHT22;5580;50.106;8.702;2023-12-20T15:39:36;8.10;99.90
11055;DHT22;5580;50.106;8.702;2023-12-20T15:42:01;8.10;99.90
11055;DHT22;5580;50.106;8.702;2023-12-20T15:44:27;8.10;99.90
11055;DHT22;5580;50.106;8.702;2023-12-20T15:46:52;8.20;99.90
11055;DHT22;5580;50.106;8.702;2023-12-20T15:49:18;8.20;99.90
11055;DHT22;5580;50.106;8.702;2023-12-20T15:51:44;8.20;99.90
11055;DHT22;5580;50.106;8.702;2023-12-20T15:54:10;8.20;99.90
11055;DHT22;5580;50.106;8.702;2023-12-20T15:56:36;8.20;99.90